sensor_id;sensor_type;location;lat;lon;timestamp;pressure;altitude;pressure_sealevel;temperature;humidity
55757;BME280;41676;44.610;44.078;2023-04-21T00:03:27;99063.88;;;11.46;77.29
55757;BME280;41676;44.610;44.078;2023-04-21T00:08:29;99038.91;;;11.20;77.62
55757;BME280;41676;44.610;44.078;2023-04-21T00:13:29;99090.44;;;11.26;78.12
55757;BME280;41676;44.610;44.078;2023-04-21T00:18:30;99092.47;;;11.17;77.94
55757;BME280;41676;44.610;44.078;2023-04-21T00:23:31;99088.78;;;11.18;78.25
55757;BME280;41676;44.610;44.078;2023-04-21T00:28:32;99083.47;;;11.12;78.04
55757;BME280;41676;44.610;44.078;2023-04-21T00:33:32;99027.03;;;10.83;78.45
55757;BME280;41676;44.610;44.078;2023-04-21T00:38:33;99100.88;;;11.28;78.58
55757;BME280;41676;44.610;44.078;2023-04-21T00:43:34;99078.97;;;11.12;78.74
55757;BME280;41676;44.610;44.078;2023-04-21T00:48:35;99023.56;;;10.89;78.78
55757;BME280;41676;44.610;44.078;2023-04-21T00:53:35;99064.25;;;11.16;79.44
55757;BME280;41676;44.610;44.078;2023-04-21T00:58:39;98891.91;;;10.34;79.23
55757;BME280;41676;44.610;44.078;2023-04-21T01:03:41;99053.84;;;11.35;78.96
55757;BME280;41676;44.610;44.078;2023-04-21T01:08:44;99027.66;;;11.18;78.09
55757;BME280;41676;44.610;44.078;2023-04-21T01:13:45;99038.09;;;11.20;77.77
55757;BME280;41676;44.610;44.078;2023-04-21T01:18:47;99085.53;;;11.63;77.88
55757;BME280;41676;44.610;44.078;2023-04-21T01:23:48;99096.19;;;11.70;77.62
55757;BME280;41676;44.610;44.078;2023-04-21T01:28:49;99069.59;;;11.50;77.93
55757;BME280;41676;44.610;44.078;2023-04-21T01:33:50;99104.75;;;11.72;77.81
55757;BME280;41676;44.610;44.078;2023-04-21T01:38:50;99103.13;;;11.77;77.88
55757;BME280;41676;44.610;44.078;2023-04-21T01:43:51;99104.16;;;11.76;78.01
55757;BME280;41676;44.610;44.078;2023-04-21T01:48:52;99105.78;;;11.84;78.59
55757;BME280;41676;44.610;44.078;2023-04-21T01:53:53;99076.31;;;11.65;78.32
55757;BME280;41676;44.610;44.078;2023-04-21T01:58:53;99065.91;;;11.64;79.00
55757;BME280;41676;44.610;44.078;2023-04-21T02:03:55;99127.69;;;11.99;79.42
55757;BME280;41676;44.610;44.078;2023-04-21T02:08:56;99087.56;;;11.74;79.20
55757;BME280;41676;44.610;44.078;2023-04-21T02:13:57;99156.13;;;12.25;79.31
55757;BME280;41676;44.610;44.078;2023-04-21T02:18:58;99104.75;;;12.05;79.96
55757;BME280;41676;44.610;44.078;2023-04-21T02:24:02;99136.41;;;12.46;80.65
55757;BME280;41676;44.610;44.078;2023-04-21T02:29:03;99137.03;;;12.48;79.94
55757;BME280;41676;44.610;44.078;2023-04-21T02:34:04;99087.44;;;12.41;80.65
55757;BME280;41676;44.610;44.078;2023-04-21T02:39:04;98998.75;;;11.88;80.38
55757;BME280;41676;44.610;44.078;2023-04-21T02:44:05;99132.88;;;12.66;81.25
55757;BME280;41676;44.610;44.078;2023-04-21T02:49:07;99152.50;;;12.78;81.75
55757;BME280;41676;44.610;44.078;2023-04-21T02:54:07;99161.06;;;12.87;82.17
55757;BME280;41676;44.610;44.078;2023-04-21T02:59:08;99141.78;;;12.85;82.96
55757;BME280;41676;44.610;44.078;2023-04-21T03:04:10;99132.38;;;12.82;83.46
55757;BME280;41676;44.610;44.078;2023-04-21T03:09:12;99121.72;;;12.82;83.55
55757;BME280;41676;44.610;44.078;2023-04-21T03:14:13;99143.13;;;13.00;83.45
55757;BME280;41676;44.610;44.078;2023-04-21T03:19:13;99138.25;;;12.97;83.40
55757;BME280;41676;44.610;44.078;2023-04-21T03:24:14;99152.94;;;13.07;84.27
55757;BME280;41676;44.610;44.078;2023-04-21T03:29:15;99146.00;;;13.06;84.27
55757;BME280;41676;44.610;44.078;2023-04-21T03:34:16;99111.06;;;12.82;85.26
55757;BME280;41676;44.610;44.078;2023-04-21T03:39:17;99148.22;;;13.09;86.30
55757;BME280;41676;44.610;44.078;2023-04-21T03:44:17;99140.56;;;13.19;87.67
55757;BME280;41676;44.610;44.078;2023-04-21T03:49:18;99144.78;;;13.40;88.11
55757;BME280;41676;44.610;44.078;2023-04-21T03:54:19;99144.97;;;13.45;89.02
55757;BME280;41676;44.610;44.078;2023-04-21T03:59:20;99095.25;;;13.26;90.00
55757;BME280;41676;44.610;44.078;2023-04-21T04:04:21;99166.44;;;13.82;90.07
55757;BME280;41676;44.610;44.078;2023-04-21T04:09:22;99175.41;;;13.94;90.89
55757;BME280;41676;44.610;44.078;2023-04-21T04:14:23;99168.13;;;14.01;90.58
55757;BME280;41676;44.610;44.078;2023-04-21T04:19:29;99105.78;;;13.70;91.52
55757;BME280;41676;44.610;44.078;2023-04-21T04:24:32;99186.66;;;14.21;90.27
55757;BME280;41676;44.610;44.078;2023-04-21T04:29:33;99172.88;;;14.43;89.96
55757;BME280;41676;44.610;44.078;2023-04-21T04:34:34;99095.31;;;14.12;89.22
55757;BME280;41676;44.610;44.078;2023-04-21T04:39:36;99204.78;;;14.81;88.58
55757;BME280;41676;44.610;44.078;2023-04-21T04:44:37;99220.44;;;14.96;88.16
55757;BME280;41676;44.610;44.078;2023-04-21T04:49:40;99179.38;;;14.72;87.20
55757;BME280;41676;44.610;44.078;2023-04-21T04:54:41;99216.28;;;15.00;86.95
55757;BME280;41676;44.610;44.078;2023-04-21T04:59:42;99175.84;;;14.90;85.50
55757;BME280;41676;44.610;44.078;2023-04-21T05:04:43;99096.72;;;14.70;84.08
55757;BME280;41676;44.610;44.078;2023-04-21T05:09:44;99102.41;;;14.92;82.47
55757;BME280;41676;44.610;44.078;2023-04-21T05:14:44;99160.28;;;15.47;81.43
55757;BME280;41676;44.610;44.078;2023-04-21T05:19:45;99149.38;;;15.60;80.51
55757;BME280;41676;44.610;44.078;2023-04-21T05:24:46;99208.03;;;15.92;79.63
55757;BME280;41676;44.610;44.078;2023-04-21T05:29:47;99221.63;;;15.90;79.29
55757;BME280;41676;44.610;44.078;2023-04-21T05:34:48;99123.25;;;15.32;78.12
55757;BME280;41676;44.610;44.078;2023-04-21T05:39:49;99244.25;;;16.06;76.96
55757;BME280;41676;44.610;44.078;2023-04-21T05:44:50;99238.81;;;16.13;75.83
55757;BME280;41676;44.610;44.078;2023-04-21T05:49:51;99227.94;;;16.08;75.35
55757;BME280;41676;44.610;44.078;2023-04-21T05:54:53;99253.81;;;16.14;75.16
55757;BME280;41676;44.610;44.078;2023-04-21T05:59:54;99262.19;;;16.17;75.28
55757;BME280;41676;44.610;44.078;2023-04-21T06:04:54;99264.44;;;16.32;74.54
55757;BME280;41676;44.610;44.078;2023-04-21T06:09:55;99231.13;;;16.40;73.62
55757;BME280;41676;44.610;44.078;2023-04-21T06:14:57;99253.75;;;16.79;73.09
55757;BME280;41676;44.610;44.078;2023-04-21T06:19:58;99198.16;;;16.39;72.44
55757;BME280;41676;44.610;44.078;2023-04-21T06:24:59;99179.84;;;16.13;72.12
55757;BME280;41676;44.610;44.078;2023-04-21T06:30:00;99265.72;;;16.53;72.06
55757;BME280;41676;44.610;44.078;2023-04-21T06:35:01;99232.88;;;16.34;70.64
55757;BME280;41676;44.610;44.078;2023-04-21T06:40:02;99305.38;;;16.86;70.34
55757;BME280;41676;44.610;44.078;2023-04-21T06:45:03;99254.44;;;16.86;69.26
55757;BME280;41676;44.610;44.078;2023-04-21T06:50:05;99306.03;;;17.29;68.08
55757;BME280;41676;44.610;44.078;2023-04-21T06:55:06;99196.94;;;16.82;67.19
55757;BME280;41676;44.610;44.078;2023-04-21T07:00:07;99253.75;;;17.20;66.37
55757;BME280;41676;44.610;44.078;2023-04-21T07:05:09;99266.22;;;17.66;66.00
55757;BME280;41676;44.610;44.078;2023-04-21T07:10:09;99207.13;;;17.95;63.84
55757;BME280;41676;44.610;44.078;2023-04-21T07:15:11;99272.16;;;18.64;63.61
55757;BME280;41676;44.610;44.078;2023-04-21T07:20:12;99279.78;;;18.34;63.94
55757;BME280;41676;44.610;44.078;2023-04-21T07:25:13;99296.53;;;18.41;63.43
55757;BME280;41676;44.610;44.078;2023-04-21T07:30:14;99257.44;;;18.33;62.04
55757;BME280;41676;44.610;44.078;2023-04-21T07:35:14;99276.66;;;18.42;61.09
55757;BME280;41676;44.610;44.078;2023-04-21T07:40:15;99232.03;;;18.07;61.65
55757;BME280;41676;44.610;44.078;2023-04-21T07:45:17;99264.91;;;18.48;61.39
55757;BME280;41676;44.610;44.078;2023-04-21T07:50:17;99201.25;;;18.54;60.04
55757;BME280;41676;44.610;44.078;2023-04-21T07:55:18;99250.38;;;18.83;58.81
55757;BME280;41676;44.610;44.078;2023-04-21T08:00:19;99191.56;;;19.41;57.81
55757;BME280;41676;44.610;44.078;2023-04-21T08:05:20;99255.91;;;19.64;56.96
55757;BME280;41676;44.610;44.078;2023-04-21T08:10:21;99202.59;;;19.93;56.00
55757;BME280;41676;44.610;44.078;2023-04-21T08:15:22;99263.28;;;20.33;55.44
55757;BME280;41676;44.610;44.078;2023-04-21T08:20:23;99241.09;;;19.89;55.09
55757;BME280;41676;44.610;44.078;2023-04-21T08:25:24;99256.91;;;20.12;55.76
55757;BME280;41676;44.610;44.078;2023-04-21T08:30:26;99240.31;;;20.25;54.15
55757;BME280;41676;44.610;44.078;2023-04-21T08:35:27;99263.06;;;20.40;53.92
55757;BME280;41676;44.610;44.078;2023-04-21T08:40:34;99261.72;;;20.42;52.85
55757;BME280;41676;44.610;44.078;2023-04-21T08:45:35;99236.84;;;20.30;52.92
55757;BME280;41676;44.610;44.078;2023-04-21T08:50:36;99218.75;;;20.30;52.94
55757;BME280;41676;44.610;44.078;2023-04-21T08:55:37;99229.00;;;20.66;51.66
55757;BME280;41676;44.610;44.078;2023-04-21T09:00:38;99280.44;;;20.96;51.22
55757;BME280;41676;44.610;44.078;2023-04-21T09:05:41;99243.63;;;20.75;51.08
55757;BME280;41676;44.610;44.078;2023-04-21T09:10:47;99287.47;;;20.92;50.81
55757;BME280;41676;44.610;44.078;2023-04-21T09:15:50;99290.81;;;20.35;52.30
55757;BME280;41676;44.610;44.078;2023-04-21T09:21:14;99290.88;;;20.78;51.97
55757;BME280;41676;44.610;44.078;2023-04-21T09:26:17;99289.22;;;20.07;53.37
55757;BME280;41676;44.610;44.078;2023-04-21T09:31:22;99285.63;;;19.96;52.43
55757;BME280;41676;44.610;44.078;2023-04-21T09:36:29;99266.31;;;20.04;51.79
55757;BME280;41676;44.610;44.078;2023-04-21T09:41:31;99284.88;;;20.65;50.57
55757;BME280;41676;44.610;44.078;2023-04-21T09:46:35;99305.97;;;20.73;50.37
55757;BME280;41676;44.610;44.078;2023-04-21T09:51:37;99302.19;;;20.42;51.57
55757;BME280;41676;44.610;44.078;2023-04-21T09:56:40;99290.47;;;19.94;52.31
55757;BME280;41676;44.610;44.078;2023-04-21T10:01:42;99317.06;;;20.45;51.33
55757;BME280;41676;44.610;44.078;2023-04-21T10:06:46;99302.91;;;20.00;51.71
55757;BME280;41676;44.610;44.078;2023-04-21T10:11:47;99220.31;;;19.89;51.60
55757;BME280;41676;44.610;44.078;2023-04-21T10:17:07;99305.47;;;20.44;50.02
55757;BME280;41676;44.610;44.078;2023-04-21T10:22:09;99287.69;;;20.48;49.10
55757;BME280;41676;44.610;44.078;2023-04-21T10:27:11;99301.88;;;21.13;48.62
55757;BME280;41676;44.610;44.078;2023-04-21T10:32:38;99293.53;;;21.20;48.72
55757;BME280;41676;44.610;44.078;2023-04-21T10:37:41;99296.66;;;21.49;47.48
55757;BME280;41676;44.610;44.078;2023-04-21T10:42:42;99315.94;;;21.78;47.02
55757;BME280;41676;44.610;44.078;2023-04-21T10:47:47;99311.38;;;21.21;47.96
55757;BME280;41676;44.610;44.078;2023-04-21T10:53:09;99308.88;;;20.62;49.40
55757;BME280;41676;44.610;44.078;2023-04-21T10:58:10;99242.75;;;20.27;49.03
55757;BME280;41676;44.610;44.078;2023-04-21T11:03:11;99305.63;;;20.33;49.42
55757;BME280;41676;44.610;44.078;2023-04-21T11:08:14;99238.69;;;19.92;49.30
55757;BME280;41676;44.610;44.078;2023-04-21T11:13:15;99304.66;;;20.44;49.30
55757;BME280;41676;44.610;44.078;2023-04-21T11:18:17;99338.59;;;20.08;49.74
55757;BME280;41676;44.610;44.078;2023-04-21T11:23:17;99255.94;;;19.20;50.03
55757;BME280;41676;44.610;44.078;2023-04-21T11:28:20;99299.25;;;19.35;50.34
55757;BME280;41676;44.610;44.078;2023-04-21T11:33:21;99339.53;;;19.69;50.07
55757;BME280;41676;44.610;44.078;2023-04-21T11:38:23;99331.47;;;19.96;48.93
55757;BME280;41676;44.610;44.078;2023-04-21T11:43:24;99333.38;;;20.01;49.02
55757;BME280;41676;44.610;44.078;2023-04-21T11:48:28;99336.69;;;20.08;49.08
55757;BME280;41676;44.610;44.078;2023-04-21T11:53:29;99347.34;;;20.20;48.51
55757;BME280;41676;44.610;44.078;2023-04-21T11:58:30;99349.09;;;20.36;48.51
55757;BME280;41676;44.610;44.078;2023-04-21T12:03:31;99351.97;;;20.89;47.45
55757;BME280;41676;44.610;44.078;2023-04-21T12:08:32;99319.66;;;20.67;46.97
55757;BME280;41676;44.610;44.078;2023-04-21T12:13:33;99266.00;;;20.70;46.87
55757;BME280;41676;44.610;44.078;2023-04-21T12:18:35;99301.25;;;20.54;46.59
55757;BME280;41676;44.610;44.078;2023-04-21T12:23:36;99342.53;;;20.91;46.28
55757;BME280;41676;44.610;44.078;2023-04-21T12:28:38;99349.47;;;21.25;45.58
55757;BME280;41676;44.610;44.078;2023-04-21T12:33:39;99208.69;;;20.16;45.43
55757;BME280;41676;44.610;44.078;2023-04-21T12:38:41;99328.47;;;20.25;46.59
55757;BME280;41676;44.610;44.078;2023-04-21T12:43:42;99348.50;;;20.02;47.07
55757;BME280;41676;44.610;44.078;2023-04-21T12:48:43;99348.59;;;19.85;47.62
55757;BME280;41676;44.610;44.078;2023-04-21T12:53:44;99346.41;;;19.82;47.70
55757;BME280;41676;44.610;44.078;2023-04-21T12:58:45;99351.47;;;19.56;47.90
55757;BME280;41676;44.610;44.078;2023-04-21T13:03:47;99325.84;;;19.54;48.07
55757;BME280;41676;44.610;44.078;2023-04-21T13:08:48;99285.63;;;19.96;46.98
55757;BME280;41676;44.610;44.078;2023-04-21T13:13:49;99357.44;;;20.62;46.95
55757;BME280;41676;44.610;44.078;2023-04-21T13:18:50;99347.25;;;20.42;46.95
55757;BME280;41676;44.610;44.078;2023-04-21T13:23:51;99338.03;;;20.05;47.07
55757;BME280;41676;44.610;44.078;2023-04-21T13:28:52;99359.19;;;19.70;47.65
55757;BME280;41676;44.610;44.078;2023-04-21T13:33:53;99311.63;;;19.14;48.44
55757;BME280;41676;44.610;44.078;2023-04-21T13:38:54;99397.19;;;19.51;48.52
55757;BME280;41676;44.610;44.078;2023-04-21T13:43:55;99327.94;;;19.08;48.45
55757;BME280;41676;44.610;44.078;2023-04-21T13:48:56;99378.97;;;19.36;48.83
55757;BME280;41676;44.610;44.078;2023-04-21T13:53:57;99378.81;;;19.26;48.99
55757;BME280;41676;44.610;44.078;2023-04-21T13:58:58;99370.88;;;18.98;49.29
55757;BME280;41676;44.610;44.078;2023-04-21T14:03:59;99391.75;;;19.07;49.56
55757;BME280;41676;44.610;44.078;2023-04-21T14:09:00;99419.31;;;18.98;49.64
55757;BME280;41676;44.610;44.078;2023-04-21T14:14:00;99400.09;;;18.89;49.43
55757;BME280;41676;44.610;44.078;2023-04-21T14:19:01;99336.63;;;18.42;49.88
55757;BME280;41676;44.610;44.078;2023-04-21T14:24:02;99314.66;;;18.00;49.89
55757;BME280;41676;44.610;44.078;2023-04-21T14:29:03;99419.75;;;18.44;50.41
55757;BME280;41676;44.610;44.078;2023-04-21T14:34:04;99418.09;;;18.26;51.27
55757;BME280;41676;44.610;44.078;2023-04-21T14:39:05;99412.81;;;18.02;52.43
55757;BME280;41676;44.610;44.078;2023-04-21T14:44:06;99441.25;;;17.87;53.76
55757;BME280;41676;44.610;44.078;2023-04-21T14:49:07;99445.84;;;17.51;55.09
55757;BME280;41676;44.610;44.078;2023-04-21T14:54:07;99444.69;;;17.23;55.87
55757;BME280;41676;44.610;44.078;2023-04-21T14:59:08;99398.22;;;16.76;56.78
55757;BME280;41676;44.610;44.078;2023-04-21T15:04:10;99418.41;;;16.78;57.20
55757;BME280;41676;44.610;44.078;2023-04-21T15:09:10;99457.59;;;16.91;57.86
55757;BME280;41676;44.610;44.078;2023-04-21T15:14:13;99456.78;;;16.79;58.38
55757;BME280;41676;44.610;44.078;2023-04-21T15:19:14;99455.34;;;16.76;58.74
55757;BME280;41676;44.610;44.078;2023-04-21T15:24:14;99405.56;;;16.38;59.04
55757;BME280;41676;44.610;44.078;2023-04-21T15:29:15;99489.03;;;16.72;59.37
55757;BME280;41676;44.610;44.078;2023-04-21T15:34:16;99443.84;;;16.27;59.74
55757;BME280;41676;44.610;44.078;2023-04-21T15:39:17;99510.78;;;16.34;61.42
55757;BME280;41676;44.610;44.078;2023-04-21T15:44:18;99523.97;;;16.17;63.24
55757;BME280;41676;44.610;44.078;2023-04-21T15:49:18;99460.16;;;15.34;65.85
55757;BME280;41676;44.610;44.078;2023-04-21T15:54:19;99481.84;;;15.00;67.92
55757;BME280;41676;44.610;44.078;2023-04-21T15:59:20;99556.88;;;15.12;71.37
55757;BME280;41676;44.610;44.078;2023-04-21T16:04:21;99569.34;;;14.93;73.88
55757;BME280;41676;44.610;44.078;2023-04-21T16:09:22;99536.03;;;14.57;76.71
55757;BME280;41676;44.610;44.078;2023-04-21T16:14:23;99392.19;;;13.64;77.33
55757;BME280;41676;44.610;44.078;2023-04-21T16:19:24;99514.28;;;14.41;78.35
55757;BME280;41676;44.610;44.078;2023-04-21T16:24:25;99585.88;;;14.77;79.65
55757;BME280;41676;44.610;44.078;2023-04-21T16:29:26;99521.94;;;14.24;81.36
55757;BME280;41676;44.610;44.078;2023-04-21T16:34:26;99605.69;;;14.63;84.14
55757;BME280;41676;44.610;44.078;2023-04-21T16:39:27;99495.09;;;14.05;85.47
55757;BME280;41676;44.610;44.078;2023-04-21T16:44:28;99524.25;;;14.13;85.95
55757;BME280;41676;44.610;44.078;2023-04-21T16:49:29;99610.25;;;14.49;86.39
55757;BME280;41676;44.610;44.078;2023-04-21T16:54:29;99548.91;;;14.09;87.19
55757;BME280;41676;44.610;44.078;2023-04-21T16:59:31;99595.25;;;14.41;88.28
55757;BME280;41676;44.610;44.078;2023-04-21T17:04:31;99552.44;;;14.09;89.86
55757;BME280;41676;44.610;44.078;2023-04-21T17:09:32;99561.69;;;14.07;90.06
55757;BME280;41676;44.610;44.078;2023-04-21T17:14:33;99601.09;;;14.11;90.42
55757;BME280;41676;44.610;44.078;2023-04-21T17:19:34;99602.34;;;14.02;91.59
55757;BME280;41676;44.610;44.078;2023-04-21T17:24:34;99598.47;;;13.98;92.61
55757;BME280;41676;44.610;44.078;2023-04-21T17:29:35;99590.88;;;13.95;92.86
55757;BME280;41676;44.610;44.078;2023-04-21T17:34:36;99587.97;;;13.97;93.65
55757;BME280;41676;44.610;44.078;2023-04-21T17:39:37;99593.75;;;14.00;94.57
55757;BME280;41676;44.610;44.078;2023-04-21T17:44:38;99607.50;;;13.97;94.73
55757;BME280;41676;44.610;44.078;2023-04-21T17:49:40;99633.81;;;14.00;95.75
55757;BME280;41676;44.610;44.078;2023-04-21T17:54:41;99608.91;;;14.00;96.20
55757;BME280;41676;44.610;44.078;2023-04-21T17:59:41;99582.25;;;13.86;96.53
55757;BME280;41676;44.610;44.078;2023-04-21T18:04:42;99608.31;;;14.04;97.06
55757;BME280;41676;44.610;44.078;2023-04-21T18:09:43;99538.97;;;13.64;97.29
55757;BME280;41676;44.610;44.078;2023-04-21T18:14:48;99605.44;;;13.92;97.96
55757;BME280;41676;44.610;44.078;2023-04-21T18:19:48;99610.81;;;13.86;98.37
55757;BME280;41676;44.610;44.078;2023-04-21T18:24:49;99621.28;;;13.74;99.08
55757;BME280;41676;44.610;44.078;2023-04-21T18:29:52;99630.31;;;13.80;99.58
55757;BME280;41676;44.610;44.078;2023-04-21T18:34:52;99616.34;;;13.78;99.44
55757;BME280;41676;44.610;44.078;2023-04-21T18:39:53;99568.34;;;13.38;99.71
55757;BME280;41676;44.610;44.078;2023-04-21T18:44:54;99652.91;;;13.84;99.97
55757;BME280;41676;44.610;44.078;2023-04-21T18:49:55;99489.31;;;12.84;100.00
55757;BME280;41676;44.610;44.078;2023-04-21T18:54:56;99655.34;;;13.79;100.00
55757;BME280;41676;44.610;44.078;2023-04-21T18:59:57;99621.69;;;13.58;100.00
55757;BME280;41676;44.610;44.078;2023-04-21T19:04:59;99605.69;;;13.58;100.00
55757;BME280;41676;44.610;44.078;2023-04-21T19:10:00;99627.03;;;13.64;100.00
55757;BME280;41676;44.610;44.078;2023-04-21T19:15:01;99579.84;;;13.38;100.00
55757;BME280;41676;44.610;44.078;2023-04-21T19:20:03;99607.34;;;13.59;100.00
55757;BME280;41676;44.610;44.078;2023-04-21T19:25:04;99580.25;;;13.55;100.00
55757;BME280;41676;44.610;44.078;2023-04-21T19:30:07;99599.94;;;13.67;100.00
55757;BME280;41676;44.610;44.078;2023-04-21T19:35:08;99576.53;;;13.43;100.00
55757;BME280;41676;44.610;44.078;2023-04-21T19:40:09;99606.31;;;13.53;100.00
55757;BME280;41676;44.610;44.078;2023-04-21T19:45:11;99602.19;;;13.51;100.00
55757;BME280;41676;44.610;44.078;2023-04-21T19:50:12;99595.44;;;13.41;100.00
55757;BME280;41676;44.610;44.078;2023-04-21T19:55:13;99590.50;;;13.32;100.00
55757;BME280;41676;44.610;44.078;2023-04-21T20:00:14;99609.38;;;13.30;100.00
55757;BME280;41676;44.610;44.078;2023-04-21T20:05:16;99589.00;;;13.16;100.00
55757;BME280;41676;44.610;44.078;2023-04-21T20:10:16;99456.81;;;12.27;100.00
55757;BME280;41676;44.610;44.078;2023-04-21T20:15:17;99588.16;;;13.02;100.00
55757;BME280;41676;44.610;44.078;2023-04-21T20:20:19;99591.84;;;13.01;100.00
55757;BME280;41676;44.610;44.078;2023-04-21T20:25:20;99590.25;;;13.13;100.00
55757;BME280;41676;44.610;44.078;2023-04-21T20:30:20;99422.94;;;12.01;100.00
55757;BME280;41676;44.610;44.078;2023-04-21T20:35:21;99608.69;;;13.08;100.00
55757;BME280;41676;44.610;44.078;2023-04-21T20:40:22;99611.53;;;13.00;100.00
55757;BME280;41676;44.610;44.078;2023-04-21T20:45:23;99610.72;;;12.93;100.00
55757;BME280;41676;44.610;44.078;2023-04-21T20:50:25;99600.63;;;12.75;100.00
55757;BME280;41676;44.610;44.078;2023-04-21T20:55:26;99630.34;;;12.78;100.00
55757;BME280;41676;44.610;44.078;2023-04-21T21:00:27;99627.66;;;12.72;100.00
55757;BME280;41676;44.610;44.078;2023-04-21T21:05:30;99621.47;;;12.65;100.00
55757;BME280;41676;44.610;44.078;2023-04-21T21:10:34;99485.03;;;11.73;100.00
55757;BME280;41676;44.610;44.078;2023-04-21T21:15:35;99613.84;;;12.48;100.00
55757;BME280;41676;44.610;44.078;2023-04-21T21:20:36;99609.47;;;12.41;100.00
55757;BME280;41676;44.610;44.078;2023-04-21T21:25:37;99607.06;;;12.46;100.00
55757;BME280;41676;44.610;44.078;2023-04-21T21:30:38;99604.94;;;12.34;100.00
55757;BME280;41676;44.610;44.078;2023-04-21T21:35:38;99606.34;;;12.24;100.00
55757;BME280;41676;44.610;44.078;2023-04-21T21:40:40;99556.59;;;11.96;100.00
55757;BME280;41676;44.610;44.078;2023-04-21T21:45:40;99608.88;;;12.04;100.00
55757;BME280;41676;44.610;44.078;2023-04-21T21:50:42;99585.75;;;11.76;100.00
55757;BME280;41676;44.610;44.078;2023-04-21T21:55:42;99608.81;;;11.69;100.00
55757;BME280;41676;44.610;44.078;2023-04-21T22:00:43;99552.16;;;11.19;100.00
55757;BME280;41676;44.610;44.078;2023-04-21T22:05:44;99543.63;;;11.02;100.00
55757;BME280;41676;44.610;44.078;2023-04-21T22:10:45;99621.38;;;11.32;100.00
55757;BME280;41676;44.610;44.078;2023-04-21T22:15:46;99606.69;;;11.15;100.00
55757;BME280;41676;44.610;44.078;2023-04-21T22:20:46;99601.06;;;11.03;100.00
55757;BME280;41676;44.610;44.078;2023-04-21T22:25:47;99613.53;;;11.24;100.00
55757;BME280;41676;44.610;44.078;2023-04-21T22:30:49;99614.28;;;11.18;100.00
55757;BME280;41676;44.610;44.078;2023-04-21T22:35:49;99573.00;;;10.79;100.00
55757;BME280;41676;44.610;44.078;2023-04-21T22:40:50;99633.41;;;11.07;100.00
55757;BME280;41676;44.610;44.078;2023-04-21T22:45:51;99536.94;;;10.48;100.00
55757;BME280;41676;44.610;44.078;2023-04-21T22:50:52;99625.13;;;10.95;100.00
55757;BME280;41676;44.610;44.078;2023-04-21T22:55:55;99636.75;;;10.94;100.00
55757;BME280;41676;44.610;44.078;2023-04-21T23:00:55;99620.59;;;10.74;100.00
55757;BME280;41676;44.610;44.078;2023-04-21T23:05:56;99617.38;;;10.64;100.00
55757;BME280;41676;44.610;44.078;2023-04-21T23:10:58;99590.41;;;10.45;100.00
55757;BME280;41676;44.610;44.078;2023-04-21T23:15:59;99604.59;;;10.38;100.00
55757;BME280;41676;44.610;44.078;2023-04-21T23:21:00;99624.84;;;10.39;100.00
55757;BME280;41676;44.610;44.078;2023-04-21T23:26:01;99605.06;;;10.12;100.00
55757;BME280;41676;44.610;44.078;2023-04-21T23:31:02;99550.03;;;9.61;100.00
55757;BME280;41676;44.610;44.078;2023-04-21T23:36:02;99650.41;;;10.02;100.00
55757;BME280;41676;44.610;44.078;2023-04-21T23:41:03;99645.19;;;9.79;100.00
55757;BME280;41676;44.610;44.078;2023-04-21T23:46:04;99635.06;;;9.59;100.00
55757;BME280;41676;44.610;44.078;2023-04-21T23:51:05;99584.19;;;9.18;100.00
55757;BME280;41676;44.610;44.078;2023-04-21T23:56:06;99622.59;;;9.45;100.00
